Time;durP1;ratioP1;P1;durP2;ratioP2;P2;SDS_P1;SDS_P2;PMS_P1;PMS_P2;Temp;Humidity;BMP_temperature;BMP_pressure;BME280_temperature;BME280_humidity;BME280_pressure;Samples;Min_cycle;Max_cycle;Signal;HPM_P1;HPM_P2
2023/11/28 00:00:26;;;;;;;2.38;0.75;;;;;;;0.70;100.00;93691.72;1026857;28;20043;-72
2023/11/28 00:00:57;;;;;;;0.10;0.10;;;;;;;0.72;100.00;93691.47;1030870;28;20274;-76
2023/11/28 00:01:27;;;;;;;0.63;0.63;;;;;;;0.72;100.00;93689.69;1022700;28;20031;-74
2023/11/28 00:01:58;;;;;;;0.10;0.10;;;;;;;0.68;100.00;93683.47;1022619;28;20600;-75
2023/11/28 00:02:28;;;;;;;0.25;0.25;;;;;;;0.72;100.00;93684.50;1022925;29;20331;-75
2023/11/28 00:02:58;;;;;;;0.32;0.32;;;;;;;0.74;100.00;93692.00;1023270;28;20047;-75
2023/11/28 00:03:29;;;;;;;0.45;0.45;;;;;;;0.68;100.00;93686.81;1022811;28;20511;-76
2023/11/28 00:03:59;;;;;;;0.00;0.00;;;;;;;0.75;100.00;93688.41;1026313;28;20126;-75
2023/11/28 00:04:30;;;;;;;0.00;0.00;;;;;;;0.74;100.00;93692.00;1027335;28;20372;-73
2023/11/28 00:05:01;;;;;;;0.06;0.06;;;;;;;0.72;100.00;93688.91;1022751;28;20035;-73
2023/11/28 00:05:32;;;;;;;0.00;0.00;;;;;;;0.75;100.00;93689.19;1022619;28;20123;-75
2023/11/28 00:06:02;;;;;;;0.00;0.00;;;;;;;0.76;100.00;93693.31;1023236;28;20098;-75
2023/11/28 00:06:33;;;;;;;0.00;0.00;;;;;;;0.77;100.00;93688.91;1026810;28;20035;-75
2023/11/28 00:07:03;;;;;;;0.10;0.10;;;;;;;0.75;100.00;93683.25;1027066;28;20035;-75
2023/11/28 00:07:34;;;;;;;0.00;0.00;;;;;;;0.73;100.00;93680.13;1030949;28;20030;-75
2023/11/28 00:08:04;;;;;;;0.00;0.00;;;;;;;0.76;100.00;93688.13;1030788;28;20494;-72
2023/11/28 00:08:35;;;;;;;0.10;0.10;;;;;;;0.76;100.00;93684.78;1031240;28;20034;-75
2023/11/28 00:09:06;;;;;;;0.00;0.00;;;;;;;0.72;100.00;93678.56;1030478;28;20030;-75
2023/11/28 00:09:36;;;;;;;0.43;0.43;;;;;;;0.76;100.00;93685.56;1022868;28;20467;-74
2023/11/28 00:10:08;;;;;;;0.17;0.10;;;;;;;0.77;100.00;93687.13;1023071;29;20034;-73
2023/11/28 00:10:39;;;;;;;0.20;0.20;;;;;;;0.74;100.00;93672.16;1019014;29;20169;-75
2023/11/28 00:11:11;;;;;;;0.00;0.00;;;;;;;0.78;100.00;93675.78;1023604;28;20035;-74
2023/11/28 00:11:41;;;;;;;0.00;0.00;;;;;;;0.79;100.00;93682.47;1030655;28;20349;-73
2023/11/28 00:12:12;;;;;;;0.00;0.00;;;;;;;0.81;100.00;93671.91;1035427;28;20021;-75
2023/11/28 00:12:42;;;;;;;0.00;0.00;;;;;;;0.81;100.00;93669.34;1032560;28;20033;-75
2023/11/28 00:13:13;;;;;;;0.00;0.00;;;;;;;0.83;100.00;93675.78;1030747;28;20029;-73
2023/11/28 00:13:44;;;;;;;0.00;0.00;;;;;;;0.84;100.00;93676.53;1030643;28;20031;-74
2023/11/28 00:14:14;;;;;;;0.00;0.00;;;;;;;0.81;100.00;93664.16;1030980;28;20654;-75
2023/11/28 00:14:44;;;;;;;0.03;0.03;;;;;;;0.84;100.00;93673.97;1026821;28;20137;-77
2023/11/28 00:15:16;;;;;;;0.00;0.00;;;;;;;0.84;100.00;93672.19;1023100;29;20139;-76
2023/11/28 00:15:47;;;;;;;0.20;0.20;;;;;;;0.85;100.00;93675.53;1022706;28;20499;-75
2023/11/28 00:16:17;;;;;;;0.10;0.10;;;;;;;0.82;100.00;93668.28;1023061;28;20032;-75
2023/11/28 00:16:48;;;;;;;0.30;0.30;;;;;;;0.81;100.00;93666.75;1019463;29;20484;-75
2023/11/28 00:17:18;;;;;;;0.00;0.00;;;;;;;0.84;100.00;93672.19;1022720;29;20233;-75
2023/11/28 00:17:49;;;;;;;0.10;0.10;;;;;;;0.82;100.00;93656.16;1026615;28;20490;-74
2023/11/28 00:18:19;;;;;;;0.00;0.00;;;;;;;0.87;100.00;93661.34;1031736;28;20034;-75
2023/11/28 00:18:51;;;;;;;0.10;0.10;;;;;;;0.88;100.00;93665.47;1030750;28;20033;-75
2023/11/28 00:19:21;;;;;;;0.00;0.00;;;;;;;0.87;100.00;93666.50;1027461;28;20030;-75
2023/11/28 00:19:52;;;;;;;0.00;0.00;;;;;;;0.88;100.00;93662.13;1035088;28;20046;-76
2023/11/28 00:20:22;;;;;;;0.40;0.38;;;;;;;0.88;100.00;93662.91;1034622;28;20682;-75
2023/11/28 00:20:53;;;;;;;0.47;0.45;;;;;;;0.87;100.00;93656.19;1036464;28;20068;-77
2023/11/28 00:21:23;;;;;;;0.00;0.00;;;;;;;0.77;100.00;93645.03;1038937;28;20067;-75
2023/11/28 00:21:53;;;;;;;0.05;0.05;;;;;;;0.82;100.00;93647.66;1030359;28;20014;-75
2023/11/28 00:22:24;;;;;;;0.10;0.10;;;;;;;0.91;100.00;93659.03;1034895;28;20534;-75
2023/11/28 00:22:55;;;;;;;0.10;0.10;;;;;;;0.89;100.00;93654.13;1034754;28;20130;-76
2023/11/28 00:23:25;;;;;;;0.00;0.00;;;;;;;0.89;100.00;93653.34;1031128;28;20069;-77
2023/11/28 00:23:56;;;;;;;0.00;0.00;;;;;;;0.91;100.00;93656.47;1026847;28;20395;-74
2023/11/28 00:24:26;;;;;;;0.00;0.00;;;;;;;0.91;100.00;93656.47;1026507;28;20564;-75
2023/11/28 00:24:57;;;;;;;0.00;0.00;;;;;;;0.91;100.00;93649.50;1027138;28;20033;-76
2023/11/28 00:25:27;;;;;;;0.40;0.40;;;;;;;0.89;100.00;93651.53;1030616;28;20026;-75
2023/11/28 00:25:58;;;;;;;0.00;0.00;;;;;;;0.93;100.00;93654.38;1034538;28;20022;-74
2023/11/28 00:26:28;;;;;;;0.10;0.10;;;;;;;0.92;100.00;93656.19;1026896;28;20090;-75
2023/11/28 00:26:59;;;;;;;0.10;0.10;;;;;;;0.93;100.00;93644.06;1030750;28;20569;-76
2023/11/28 00:27:29;;;;;;;0.10;0.10;;;;;;;0.93;100.00;93654.38;1026905;28;20438;-76
2023/11/28 00:28:00;;;;;;;0.85;0.30;;;;;;;0.95;100.00;93647.16;1026578;28;20027;-75
2023/11/28 00:28:30;;;;;;;0.00;0.00;;;;;;;0.93;100.00;93647.41;1032573;28;20022;-75
2023/11/28 00:29:01;;;;;;;0.10;0.10;;;;;;;0.97;100.00;93649.50;1035173;28;20030;-75
2023/11/28 00:29:31;;;;;;;0.00;0.00;;;;;;;0.96;100.00;93645.38;1033286;28;20056;-76
2023/11/28 00:30:02;;;;;;;0.00;0.00;;;;;;;0.91;100.00;93638.38;1034743;28;20583;-76
2023/11/28 00:30:33;;;;;;;0.00;0.00;;;;;;;0.99;100.00;93644.84;1031274;28;20019;-76
2023/11/28 00:31:04;;;;;;;0.00;0.00;;;;;;;0.97;100.00;93646.91;1034937;28;20029;-75
2023/11/28 00:31:34;;;;;;;0.00;0.00;;;;;;;0.97;100.00;93645.09;1034838;28;20022;-75
2023/11/28 00:32:05;;;;;;;0.00;0.00;;;;;;;0.97;100.00;93650.25;1034746;28;20776;-75
2023/11/28 00:32:35;;;;;;;2.38;0.95;;;;;;;0.97;100.00;93650.25;1034648;28;20026;-74
2023/11/28 00:33:06;;;;;;;0.38;0.38;;;;;;;0.99;100.00;93639.69;1035147;28;20488;-74
2023/11/28 00:33:36;;;;;;;0.00;0.00;;;;;;;0.97;100.00;93647.69;1026795;28;20023;-76
2023/11/28 00:34:07;;;;;;;0.10;0.10;;;;;;;0.91;100.00;93641.75;1022870;28;20345;-77
2023/11/28 00:34:37;;;;;;;0.00;0.00;;;;;;;0.97;100.00;93645.09;1034667;28;20452;-76
2023/11/28 00:35:08;;;;;;;0.00;0.00;;;;;;;0.98;100.00;93646.66;1030772;28;20474;-75
2023/11/28 00:35:39;;;;;;;0.10;0.10;;;;;;;0.97;100.00;93646.91;1031270;28;20202;-76
2023/11/28 00:36:09;;;;;;;0.10;0.10;;;;;;;0.97;100.00;93645.09;1028262;28;20062;-76
2023/11/28 00:36:40;;;;;;;0.00;0.00;;;;;;;0.97;100.00;93650.25;1030778;28;20034;-76
2023/11/28 00:37:10;;;;;;;0.30;0.30;;;;;;;0.98;100.00;93646.66;1030982;28;20474;-76
2023/11/28 00:37:41;;;;;;;0.00;0.00;;;;;;;0.98;100.00;93646.66;1026582;28;20042;-75
2023/11/28 00:38:12;;;;;;;0.38;0.35;;;;;;;0.85;100.00;93621.31;1026655;28;20537;-77
2023/11/28 00:38:43;;;;;;;0.10;0.10;;;;;;;0.93;100.00;93628.56;1034945;28;20540;-76
2023/11/28 00:39:13;;;;;;;0.00;0.00;;;;;;;0.94;100.00;93624.97;1030701;28;20635;-76
2023/11/28 00:39:43;;;;;;;0.00;0.00;;;;;;;1.01;100.00;93645.38;1022223;29;20038;-76
2023/11/28 00:40:14;;;;;;;0.00;0.00;;;;;;;1.02;100.00;93647.69;1026621;28;20026;-75
2023/11/28 00:40:45;;;;;;;0.00;0.00;;;;;;;0.97;100.00;93641.75;1026727;28;20083;-76
2023/11/28 00:41:15;;;;;;;0.00;0.00;;;;;;;0.98;100.00;93640.72;1022899;29;20029;-76
2023/11/28 00:41:46;;;;;;;0.00;0.00;;;;;;;1.02;100.00;93644.34;1022389;28;20075;-74
2023/11/28 00:42:16;;;;;;;0.00;0.00;;;;;;;1.04;100.00;93645.66;1026856;28;20015;-76
2023/11/28 00:42:47;;;;;;;0.10;0.10;;;;;;;1.05;100.00;93642.03;1018969;29;20035;-72
2023/11/28 00:43:18;;;;;;;0.08;0.08;;;;;;;1.07;100.00;93642.53;1014809;29;20051;-75
2023/11/28 00:43:48;;;;;;;0.00;0.00;;;;;;;1.06;100.00;93648.75;1023215;29;20082;-76
2023/11/28 00:44:19;;;;;;;0.10;0.10;;;;;;;1.01;100.00;93635.84;1029079;28;20041;-75
2023/11/28 00:44:49;;;;;;;0.00;0.00;;;;;;;1.03;100.00;93643.31;1028870;28;20025;-76
2023/11/28 00:45:24;;;;;;;0.10;0.10;;;;;;;1.09;100.00;93643.06;1032653;28;20034;-76
2023/11/28 00:45:55;;;;;;;0.10;0.10;;;;;;;1.07;100.00;93637.38;1029348;28;20026;-76
2023/11/28 00:46:25;;;;;;;0.10;0.10;;;;;;;1.04;100.00;93640.50;1028584;28;20516;-76
2023/11/28 00:46:57;;;;;;;0.32;0.32;;;;;;;1.10;100.00;93641.25;1024061;28;20027;-75
2023/11/28 00:47:28;;;;;;;0.24;0.24;;;;;;;1.09;100.00;93648.22;1027258;28;20034;-73
2023/11/28 00:47:58;;;;;;;0.00;0.00;;;;;;;1.09;100.00;93645.66;1031113;28;20029;-75
2023/11/28 00:48:28;;;;;;;0.00;0.00;;;;;;;1.10;100.00;93643.84;1030735;28;20099;-76
2023/11/28 00:48:59;;;;;;;0.10;0.10;;;;;;;1.07;100.00;93634.78;1030648;28;20469;-77
2023/11/28 00:49:30;;;;;;;0.10;0.10;;;;;;;1.12;100.00;93641.78;1031000;28;20509;-75
2023/11/28 00:50:01;;;;;;;0.00;0.00;;;;;;;1.11;100.00;93635.84;1034666;28;20393;-74
2023/11/28 00:50:31;;;;;;;0.10;0.10;;;;;;;1.08;100.00;93636.38;1038545;28;20063;-74
2023/11/28 00:51:02;;;;;;;1.25;0.73;;;;;;;1.11;100.00;93641.03;1030869;28;20018;-76
2023/11/28 00:51:32;;;;;;;0.00;0.00;;;;;;;1.07;100.00;93634.00;1025433;28;20526;-76
2023/11/28 00:52:03;;;;;;;0.00;0.00;;;;;;;1.12;100.00;93639.22;1026672;28;20015;-75
2023/11/28 00:52:34;;;;;;;0.10;0.10;;;;;;;1.07;100.00;93629.63;1026381;28;20030;-75
2023/11/28 00:53:04;;;;;;;0.10;0.10;;;;;;;1.10;100.00;93639.44;1026261;28;20109;-76
2023/11/28 00:53:35;;;;;;;0.00;0.00;;;;;;;1.11;100.00;93635.09;1026718;28;20082;-77
2023/11/28 00:54:05;;;;;;;0.00;0.00;;;;;;;1.09;100.00;93631.97;1030845;28;20025;-77
2023/11/28 00:54:38;;;;;;;0.57;0.47;;;;;;;1.07;100.00;93628.84;1038419;28;20060;-75
2023/11/28 00:55:08;;;;;;;0.10;0.10;;;;;;;1.13;100.00;93633.78;1030798;28;20054;-76
2023/11/28 00:55:38;;;;;;;0.00;0.00;;;;;;;1.14;100.00;93632.75;1026325;28;20026;-76
2023/11/28 00:56:17;;;;;;;0.00;0.00;;;;;;;1.11;100.00;93628.09;1026931;28;20038;-76
2023/11/28 00:56:47;;;;;;;0.08;0.08;;;;;;;1.14;100.00;93637.94;1024912;28;20528;-76
2023/11/28 00:57:18;;;;;;;0.10;0.10;;;;;;;1.14;100.00;93640.50;1026377;28;20030;-76
2023/11/28 00:57:49;;;;;;;0.14;0.14;;;;;;;1.14;100.00;93630.19;1026808;28;20134;-75
2023/11/28 00:58:19;;;;;;;0.00;0.00;;;;;;;1.16;100.00;93630.69;1022442;28;20483;-75
2023/11/28 00:58:50;;;;;;;0.00;0.00;;;;;;;1.17;100.00;93634.84;1027467;28;20023;-75
2023/11/28 00:59:21;;;;;;;0.00;0.00;;;;;;;1.16;100.00;93641.00;1022806;28;20026;-75
2023/11/28 00:59:51;;;;;;;0.00;0.00;;;;;;;1.16;100.00;93633.25;1022394;29;20023;-74
2023/11/28 01:00:22;;;;;;;0.47;0.47;;;;;;;1.13;100.00;93628.59;1026471;28;20016;-75
2023/11/28 01:00:54;;;;;;;0.00;0.00;;;;;;;1.11;100.00;93619.59;1030596;28;20033;-75
2023/11/28 01:01:24;;;;;;;0.00;0.00;;;;;;;1.12;100.00;93629.66;1033568;28;20503;-76
2023/11/28 01:01:55;;;;;;;0.20;0.20;;;;;;;1.17;100.00;93626.28;1026070;28;20023;-76
2023/11/28 01:02:25;;;;;;;0.05;0.05;;;;;;;1.18;100.00;93636.38;1027024;28;20541;-76
2023/11/28 01:02:56;;;;;;;0.20;0.20;;;;;;;1.18;100.00;93625.28;1026596;28;20422;-76
2023/11/28 01:03:26;;;;;;;4.47;1.65;;;;;;;1.22;100.00;93630.72;1026349;28;20049;-74
2023/11/28 01:03:56;;;;;;;0.00;0.00;;;;;;;1.21;100.00;93629.13;1030289;28;20045;-75
2023/11/28 01:04:27;;;;;;;1.00;0.35;;;;;;;1.14;100.00;93625.00;1021886;29;20015;-75
2023/11/28 01:04:58;;;;;;;0.00;0.00;;;;;;;1.18;100.00;93628.63;1022439;28;20031;-75
2023/11/28 01:05:28;;;;;;;0.00;0.00;;;;;;;1.18;100.00;93636.38;1029782;28;20026;-76
2023/11/28 01:05:58;;;;;;;0.00;0.00;;;;;;;1.22;100.00;93628.91;1030596;28;20041;-76
2023/11/28 01:06:31;;;;;;;0.00;0.00;;;;;;;1.18;100.00;93620.13;1026619;28;20027;-76
2023/11/28 01:07:02;;;;;;;0.00;0.00;;;;;;;1.16;100.00;93620.34;1031128;28;20026;-75
2023/11/28 01:07:32;;;;;;;0.00;0.00;;;;;;;1.24;100.00;93631.22;1030053;28;20026;-75
2023/11/28 01:08:03;;;;;;;0.55;0.55;;;;;;;1.22;100.00;93621.16;1031158;28;20037;-76
2023/11/28 01:08:34;;;;;;;0.00;0.00;;;;;;;1.23;100.00;93627.09;1026801;28;20022;-75
2023/11/28 01:09:05;;;;;;;0.00;0.00;;;;;;;1.17;100.00;93621.94;1022450;29;20031;-77
2023/11/28 01:09:35;;;;;;;0.00;0.00;;;;;;;1.22;100.00;93628.13;1022328;29;20027;-75
2023/11/28 01:10:07;;;;;;;0.00;0.00;;;;;;;1.24;100.00;93628.63;1022746;29;20024;-75
2023/11/28 01:10:38;;;;;;;0.00;0.00;;;;;;;1.25;100.00;93625.03;1022800;28;20523;-76
2023/11/28 01:11:08;;;;;;;0.30;0.30;;;;;;;1.25;100.00;93619.88;1027282;28;20030;-76
2023/11/28 01:11:39;;;;;;;0.00;0.00;;;;;;;1.25;100.00;93622.44;1030220;28;20022;-76
2023/11/28 01:12:09;;;;;;;0.10;0.10;;;;;;;1.25;100.00;93625.03;1026305;28;20057;-75
2023/11/28 01:12:40;;;;;;;0.00;0.00;;;;;;;1.26;100.00;93631.75;1026845;28;20027;-76
2023/11/28 01:13:10;;;;;;;0.00;0.00;;;;;;;1.27;100.00;93628.13;1030584;28;20433;-75
2023/11/28 01:13:41;;;;;;;0.00;0.00;;;;;;;1.29;100.00;93626.84;1026690;28;20042;-75
2023/11/28 01:14:11;;;;;;;0.10;0.10;;;;;;;1.28;100.00;93620.13;1026696;28;20410;-74
2023/11/28 01:14:42;;;;;;;0.10;0.10;;;;;;;1.27;100.00;93620.38;1026608;28;20019;-75
2023/11/28 01:15:12;;;;;;;0.20;0.20;;;;;;;1.24;100.00;93610.53;1026992;28;20062;-76
2023/11/28 01:15:43;;;;;;;0.10;0.10;;;;;;;1.27;100.00;93617.78;1022524;28;20034;-77
2023/11/28 01:16:13;;;;;;;0.10;0.10;;;;;;;1.32;100.00;93630.72;1022485;28;20114;-75
2023/11/28 01:16:45;;;;;;;0.00;0.00;;;;;;;1.30;100.00;93620.63;1026877;28;20038;-75
2023/11/28 01:17:15;;;;;;;0.08;0.08;;;;;;;1.23;100.00;93602.03;1018755;28;20035;-76
2023/11/28 01:17:46;;;;;;;0.10;0.10;;;;;;;1.34;100.00;93624.28;1026773;28;20039;-76
2023/11/28 01:18:16;;;;;;;0.00;0.00;;;;;;;1.34;100.00;93624.28;1022838;29;20027;-75
2023/11/28 01:18:47;;;;;;;0.00;0.00;;;;;;;1.37;100.00;93623.72;1022629;28;20031;-76
2023/11/28 01:19:17;;;;;;;0.00;0.00;;;;;;;1.37;100.00;93617.78;1022561;29;20031;-77
2023/11/28 01:19:47;;;;;;;0.30;0.30;;;;;;;1.34;100.00;93615.72;1018497;29;20083;-76
2023/11/28 01:20:18;;;;;;;0.00;0.00;;;;;;;1.36;100.00;93622.19;1018533;29;20043;-78
2023/11/28 01:20:48;;;;;;;0.00;0.00;;;;;;;1.38;100.00;93629.69;1022588;28;20113;-76
2023/11/28 01:21:19;;;;;;;0.00;0.00;;;;;;;1.39;100.00;93615.75;1022693;28;20034;-76
2023/11/28 01:21:49;;;;;;;0.00;0.00;;;;;;;1.39;100.00;93618.31;1026110;28;20031;-76
2023/11/28 01:22:20;;;;;;;0.20;0.20;;;;;;;1.39;100.00;93615.75;1026476;28;20481;-76
2023/11/28 01:22:50;;;;;;;0.22;0.22;;;;;;;1.38;100.00;93619.38;1022374;29;20024;-76
2023/11/28 01:23:21;;;;;;;0.00;0.00;;;;;;;1.38;100.00;93624.53;1018958;29;20031;-76
2023/11/28 01:23:53;;;;;;;0.00;0.00;;;;;;;1.39;100.00;93623.50;1022550;28;20044;-76
2023/11/28 01:24:23;;;;;;;0.10;0.10;;;;;;;1.38;100.00;93624.53;1022514;28;20035;-76
2023/11/28 01:24:53;;;;;;;0.10;0.10;;;;;;;1.41;100.00;93618.84;1022665;29;20069;-75
2023/11/28 01:25:24;;;;;;;0.00;0.00;;;;;;;1.39;100.00;93615.75;1014620;29;20047;-78
2023/11/28 01:25:54;;;;;;;0.35;0.28;;;;;;;1.44;100.00;93620.91;1018422;29;20043;-76
2023/11/28 01:26:25;;;;;;;0.47;0.35;;;;;;;1.44;100.00;93620.13;1018919;29;20043;-77
2023/11/28 01:26:55;;;;;;;0.00;0.00;;;;;;;1.43;100.00;93619.34;1018458;28;20451;-75
2023/11/28 01:27:26;;;;;;;0.00;0.00;;;;;;;1.41;100.00;93608.50;1022719;29;20034;-75
2023/11/28 01:27:56;;;;;;;1.27;0.22;;;;;;;1.44;100.00;93613.16;1018597;28;20036;-76
2023/11/28 01:28:27;;;;;;;0.17;0.17;;;;;;;1.43;100.00;93619.34;1026663;28;20026;-75
2023/11/28 01:28:57;;;;;;;0.00;0.00;;;;;;;1.44;100.00;93615.72;1022644;28;20435;-76
2023/11/28 01:29:27;;;;;;;0.00;0.00;;;;;;;1.46;100.00;93620.66;1022306;28;20435;-76
2023/11/28 01:29:58;;;;;;;0.00;0.00;;;;;;;1.40;100.00;93607.72;1022324;29;20431;-76
2023/11/28 01:30:29;;;;;;;0.10;0.10;;;;;;;1.47;100.00;93622.19;1019032;29;20059;-76
2023/11/28 01:30:59;;;;;;;0.10;0.10;;;;;;;1.46;100.00;93621.44;1022456;28;20035;-75
2023/11/28 01:31:30;;;;;;;0.10;0.10;;;;;;;1.47;100.00;93617.78;1026586;28;20316;-76
2023/11/28 01:32:02;;;;;;;0.50;0.50;;;;;;;1.45;100.00;93609.53;1022701;28;20039;-76
2023/11/28 01:32:33;;;;;;;0.00;0.00;;;;;;;1.48;100.00;93616.78;1022129;29;20130;-76
2023/11/28 01:33:03;;;;;;;0.00;0.00;;;;;;;1.50;100.00;93616.50;1022657;29;20293;-75
2023/11/28 01:33:34;;;;;;;0.20;0.20;;;;;;;1.51;100.00;93625.81;1022621;28;20030;-77
2023/11/28 01:34:04;;;;;;;0.20;0.20;;;;;;;1.51;100.00;93616.28;1022472;28;20082;-77
2023/11/28 01:34:35;;;;;;;0.00;0.00;;;;;;;1.48;100.00;93614.19;1026496;28;20438;-76
2023/11/28 01:35:05;;;;;;;0.20;0.20;;;;;;;1.53;100.00;93616.78;1018375;29;20027;-76
2023/11/28 01:35:37;;;;;;;0.00;0.00;;;;;;;1.54;100.00;93613.19;1014708;29;20012;-76
2023/11/28 01:36:08;;;;;;;0.00;0.00;;;;;;;1.48;100.00;93621.94;1014701;29;20092;-75
2023/11/28 01:36:40;;;;;;;0.00;0.00;;;;;;;1.56;100.00;93624.00;1014808;29;20447;-76
2023/11/28 01:37:10;;;;;;;0.10;0.10;;;;;;;1.54;100.00;93608.00;1014758;29;20118;-77
2023/11/28 01:37:41;;;;;;;0.10;0.10;;;;;;;1.54;100.00;93612.38;1014905;29;20303;-76
2023/11/28 01:38:11;;;;;;;0.00;0.00;;;;;;;1.58;100.00;93619.38;1022559;28;20031;-75
2023/11/28 01:38:41;;;;;;;0.00;0.00;;;;;;;1.59;100.00;93615.75;1026870;28;20082;-76
2023/11/28 01:39:12;;;;;;;0.00;0.00;;;;;;;1.59;100.00;93620.91;1034166;28;20022;-75
2023/11/28 01:39:43;;;;;;;0.00;0.00;;;;;;;1.60;100.00;93617.28;1030613;28;20023;-76
2023/11/28 01:40:13;;;;;;;0.05;0.05;;;;;;;1.59;100.00;93615.75;1025731;28;20038;-76
2023/11/28 01:40:48;;;;;;;0.00;0.00;;;;;;;1.53;100.00;93608.25;1024661;28;20102;-76
2023/11/28 01:41:19;;;;;;;0.08;0.08;;;;;;;1.57;100.00;93622.97;1024901;28;20037;-76
2023/11/28 01:41:49;;;;;;;0.10;0.10;;;;;;;1.57;100.00;93617.81;1029956;28;20630;-77
2023/11/28 01:42:19;;;;;;;0.00;0.00;;;;;;;1.57;100.00;93611.84;1015235;29;20048;-75
2023/11/28 01:42:50;;;;;;;0.20;0.20;;;;;;;1.57;100.00;93617.81;1018623;29;20500;-74
2023/11/28 01:43:24;;;;;;;0.20;0.20;;;;;;;1.51;100.00;93602.56;1018414;29;20031;-77
2023/11/28 01:43:55;;;;;;;0.26;0.26;;;;;;;1.58;100.00;93619.38;1019987;28;20303;-76
2023/11/28 01:44:25;;;;;;;0.42;0.16;;;;;;;1.58;100.00;93624.53;1022866;28;20166;-76
2023/11/28 01:44:56;;;;;;;0.00;0.00;;;;;;;1.59;100.00;93615.75;1026549;28;20106;-75
2023/11/28 01:45:26;;;;;;;0.00;0.00;;;;;;;1.51;100.00;93602.56;1022699;29;20038;-74
2023/11/28 01:45:57;;;;;;;0.00;0.00;;;;;;;1.60;100.00;93617.28;1026584;28;20443;-76
2023/11/28 01:46:28;;;;;;;0.00;0.00;;;;;;;1.59;100.00;93618.31;1026371;28;20113;-75
2023/11/28 01:46:58;;;;;;;0.00;0.00;;;;;;;1.64;100.00;93617.53;1015035;29;20180;-77
2023/11/28 01:47:29;;;;;;;0.10;0.10;;;;;;;1.57;100.00;93612.63;1014579;29;20276;-77
2023/11/28 01:47:59;;;;;;;0.10;0.10;;;;;;;1.59;100.00;93614.97;1022727;29;20035;-76
2023/11/28 01:48:30;;;;;;;0.03;0.03;;;;;;;1.55;100.00;93604.38;1022701;28;20038;-76
2023/11/28 01:49:02;;;;;;;0.20;0.20;;;;;;;1.57;100.00;93606.69;1022552;28;20038;-76
2023/11/28 01:49:34;;;;;;;0.00;0.00;;;;;;;1.62;100.00;93609.28;1014790;29;20280;-76
2023/11/28 01:50:05;;;;;;;0.00;0.00;;;;;;;1.59;100.00;93597.66;1010783;29;20032;-76
2023/11/28 01:50:36;;;;;;;0.10;0.10;;;;;;;1.57;100.00;93604.88;1014926;29;20024;-78
2023/11/28 01:51:07;;;;;;;0.00;0.00;;;;;;;1.60;100.00;93606.19;1018709;29;20038;-76
2023/11/28 01:51:38;;;;;;;0.00;0.00;;;;;;;1.61;100.00;93600.75;1017742;29;20027;-76
2023/11/28 01:52:10;;;;;;;0.10;0.10;;;;;;;1.57;100.00;93602.28;1022771;29;20062;-77
2023/11/28 01:52:40;;;;;;;0.00;0.00;;;;;;;1.64;100.00;93613.16;1018676;29;20160;-76
2023/11/28 01:53:10;;;;;;;0.10;0.10;;;;;;;1.59;100.00;93607.22;1018612;29;20158;-75
2023/11/28 01:53:41;;;;;;;0.00;0.00;;;;;;;1.64;100.00;93607.19;1023193;28;20035;-76
2023/11/28 01:54:11;;;;;;;0.20;0.20;;;;;;;1.67;100.00;93608.50;1026723;28;20036;-76
2023/11/28 01:54:42;;;;;;;0.35;0.35;;;;;;;1.65;100.00;93612.13;1022834;29;20026;-77
2023/11/28 01:55:13;;;;;;;0.10;0.10;;;;;;;1.63;100.00;93605.66;1020593;29;20081;-76
2023/11/28 01:55:43;;;;;;;0.00;0.00;;;;;;;1.63;100.00;93596.09;1018550;29;20023;-76
2023/11/28 01:56:14;;;;;;;0.10;0.10;;;;;;;1.60;100.00;93606.94;1014989;29;20040;-75
2023/11/28 01:56:44;;;;;;;0.00;0.00;;;;;;;1.64;100.00;93597.66;1014703;29;20515;-75
2023/11/28 01:57:15;;;;;;;0.52;0.52;;;;;;;1.65;100.00;93606.19;1018661;29;20056;-76
2023/11/28 01:57:46;;;;;;;0.00;0.00;;;;;;;1.63;100.00;93608.25;1027537;28;20399;-76
2023/11/28 01:58:16;;;;;;;0.10;0.10;;;;;;;1.64;100.00;93605.41;1024987;28;20038;-74
2023/11/28 01:58:47;;;;;;;0.20;0.20;;;;;;;1.61;100.00;93600.75;1028213;28;20301;-75
2023/11/28 01:59:17;;;;;;;0.00;0.00;;;;;;;1.62;100.00;93599.72;1022668;29;20066;-74
2023/11/28 01:59:48;;;;;;;0.00;0.00;;;;;;;1.63;100.00;93610.81;1018981;29;20020;-75
2023/11/28 02:00:18;;;;;;;0.00;0.00;;;;;;;1.62;100.00;93609.28;1024096;28;20030;-76
2023/11/28 02:00:49;;;;;;;0.17;0.17;;;;;;;1.63;100.00;93603.06;1022792;28;20551;-76
2023/11/28 02:01:20;;;;;;;0.00;0.00;;;;;;;1.62;100.00;93609.28;1026641;28;20037;-74
2023/11/28 02:01:50;;;;;;;0.00;0.00;;;;;;;1.57;100.00;93602.28;1026476;28;20410;-75
2023/11/28 02:02:21;;;;;;;0.00;0.00;;;;;;;1.56;100.00;93602.56;1022618;29;20027;-76
2023/11/28 02:02:51;;;;;;;0.20;0.20;;;;;;;1.56;100.00;93598.16;1022620;28;20071;-75
2023/11/28 02:03:22;;;;;;;0.00;0.00;;;;;;;1.60;100.00;93601.78;1018799;29;20024;-75
2023/11/28 02:03:52;;;;;;;0.00;0.00;;;;;;;1.59;100.00;93599.47;1022527;28;20027;-76
2023/11/28 02:04:23;;;;;;;0.55;0.32;;;;;;;1.60;100.00;93606.94;1022921;28;20031;-76
2023/11/28 02:04:53;;;;;;;0.00;0.00;;;;;;;1.60;100.00;93604.38;1022803;28;20023;-77
2023/11/28 02:05:25;;;;;;;0.10;0.10;;;;;;;1.61;100.00;93607.72;1030483;28;20030;-76
2023/11/28 02:05:57;;;;;;;0.00;0.00;;;;;;;1.56;100.00;93595.59;1018885;29;20042;-76
2023/11/28 02:06:27;;;;;;;0.24;0.24;;;;;;;1.59;100.00;93602.81;1018916;29;20044;-76
2023/11/28 02:06:58;;;;;;;0.00;0.00;;;;;;;1.58;100.00;93597.94;1022778;28;20042;-76
2023/11/28 02:07:29;;;;;;;0.06;0.06;;;;;;;1.54;100.00;93596.88;1023377;28;20034;-74
2023/11/28 02:07:59;;;;;;;0.00;0.00;;;;;;;1.56;100.00;93594.81;1026532;28;20035;-75
2023/11/28 02:08:30;;;;;;;0.00;0.00;;;;;;;1.60;100.00;93604.38;1018832;29;20133;-75
2023/11/28 02:09:00;;;;;;;0.00;0.00;;;;;;;1.53;100.00;93596.09;1022424;28;20031;-76
2023/11/28 02:09:30;;;;;;;0.00;0.00;;;;;;;1.51;100.00;93597.38;1024721;28;20031;-75
2023/11/28 02:10:01;;;;;;;0.00;0.00;;;;;;;1.58;100.00;93603.88;1023849;28;20041;-75
2023/11/28 02:10:33;;;;;;;0.03;0.03;;;;;;;1.58;100.00;93598.69;1035047;28;20592;-76
2023/11/28 02:11:04;;;;;;;0.00;0.00;;;;;;;1.59;100.00;93599.47;1027881;28;20593;-76
2023/11/28 02:11:35;;;;;;;0.00;0.00;;;;;;;1.54;100.00;93597.66;1027147;28;20282;-76
2023/11/28 02:12:06;;;;;;;0.00;0.00;;;;;;;1.56;100.00;93597.41;1027070;28;20522;-75
2023/11/28 02:12:36;;;;;;;0.00;0.00;;;;;;;1.60;100.00;93601.00;1031475;28;20154;-76
2023/11/28 02:13:07;;;;;;;0.10;0.10;;;;;;;1.51;100.00;93597.38;1023184;29;20038;-75
2023/11/28 02:13:37;;;;;;;0.00;0.00;;;;;;;1.57;100.00;93601.53;1031307;28;20553;-75
2023/11/28 02:14:10;;;;;;;0.00;0.00;;;;;;;1.58;100.00;93603.09;1023535;28;20058;-75
2023/11/28 02:14:43;;;;;;;0.10;0.10;;;;;;;1.53;100.00;93593.50;1023817;28;20035;-76
2023/11/28 02:15:14;;;;;;;0.08;0.08;;;;;;;1.56;100.00;93605.91;1027741;28;20034;-75
2023/11/28 02:15:45;;;;;;;0.00;0.00;;;;;;;1.55;100.00;93604.38;1023845;28;20075;-75
2023/11/28 02:16:16;;;;;;;0.64;0.46;;;;;;;1.55;100.00;93598.44;1028113;28;20492;-75
2023/11/28 02:16:46;;;;;;;0.00;0.00;;;;;;;1.55;100.00;93604.38;1027584;28;20075;-75
2023/11/28 02:17:17;;;;;;;0.00;0.00;;;;;;;1.58;100.00;93603.09;1027223;28;20041;-74
2023/11/28 02:17:48;;;;;;;0.10;0.10;;;;;;;1.57;100.00;93597.13;1023157;29;20066;-75
2023/11/28 02:18:19;;;;;;;0.00;0.00;;;;;;;1.59;100.00;93609.81;1019606;29;20095;-76
2023/11/28 02:18:49;;;;;;;0.00;0.00;;;;;;;1.58;100.00;93601.28;1019615;28;20303;-76
2023/11/28 02:19:20;;;;;;;0.00;0.00;;;;;;;1.57;100.00;93607.47;1023790;28;20112;-75
2023/11/28 02:19:53;;;;;;;0.00;0.00;;;;;;;1.57;100.00;93594.53;1027334;28;20026;-76
2023/11/28 02:20:24;;;;;;;0.00;0.00;;;;;;;1.58;100.00;93593.53;1035061;28;20124;-75
2023/11/28 02:20:54;;;;;;;0.00;0.00;;;;;;;1.60;100.00;93604.38;1035384;28;20646;-75
2023/11/28 02:21:25;;;;;;;0.28;0.13;;;;;;;1.59;100.00;93595.06;1031790;28;20243;-75
2023/11/28 02:21:55;;;;;;;0.00;0.00;;;;;;;1.60;100.00;93601.00;1025772;28;20026;-76
2023/11/28 02:22:26;;;;;;;0.00;0.00;;;;;;;1.61;100.00;93595.59;1022369;29;20031;-76
2023/11/28 02:22:56;;;;;;;0.00;0.00;;;;;;;1.60;100.00;93591.44;1022422;29;20021;-74
2023/11/28 02:23:27;;;;;;;0.00;0.00;;;;;;;1.60;100.00;93596.59;1023602;29;20058;-73
2023/11/28 02:23:57;;;;;;;0.60;0.40;;;;;;;1.57;100.00;93586.00;1027419;28;20018;-75
2023/11/28 02:24:28;;;;;;;0.00;0.00;;;;;;;1.60;100.00;93591.44;1023684;28;20027;-75
2023/11/28 02:24:58;;;;;;;0.00;0.00;;;;;;;1.60;100.00;93595.84;1023713;28;20032;-75